sensor_id;sensor_type;location;lat;lon;timestamp;P1;durP1;ratioP1;P2;durP2;ratioP2
66886;SDS011;53798;51.680;5.976;2022-12-05T00:04:05;48.47;;;26.40;;
66886;SDS011;53798;51.680;5.976;2022-12-05T00:06:35;47.30;;;24.55;;
66886;SDS011;53798;51.680;5.976;2022-12-05T00:09:05;44.35;;;24.23;;
66886;SDS011;53798;51.680;5.976;2022-12-05T00:11:35;46.58;;;26.02;;
66886;SDS011;53798;51.680;5.976;2022-12-05T00:14:09;46.10;;;25.42;;
66886;SDS011;53798;51.680;5.976;2022-12-05T00:16:38;45.33;;;25.45;;
66886;SDS011;53798;51.680;5.976;2022-12-05T00:19:10;49.97;;;26.27;;
66886;SDS011;53798;51.680;5.976;2022-12-05T00:21:40;47.60;;;25.48;;
66886;SDS011;53798;51.680;5.976;2022-12-05T00:24:11;48.83;;;26.23;;
66886;SDS011;53798;51.680;5.976;2022-12-05T00:26:41;45.42;;;25.23;;
66886;SDS011;53798;51.680;5.976;2022-12-05T00:29:09;48.72;;;26.45;;
66886;SDS011;53798;51.680;5.976;2022-12-05T00:31:36;47.25;;;25.35;;
66886;SDS011;53798;51.680;5.976;2022-12-05T00:34:04;46.92;;;24.95;;
66886;SDS011;53798;51.680;5.976;2022-12-05T00:36:32;49.30;;;25.55;;
66886;SDS011;53798;51.680;5.976;2022-12-05T00:39:03;48.55;;;25.70;;
66886;SDS011;53798;51.680;5.976;2022-12-05T00:41:35;43.58;;;24.42;;
66886;SDS011;53798;51.680;5.976;2022-12-05T00:44:06;49.80;;;27.90;;
66886;SDS011;53798;51.680;5.976;2022-12-05T00:46:36;47.10;;;26.55;;
66886;SDS011;53798;51.680;5.976;2022-12-05T00:49:04;44.42;;;24.88;;
66886;SDS011;53798;51.680;5.976;2022-12-05T00:51:34;46.40;;;24.75;;
66886;SDS011;53798;51.680;5.976;2022-12-05T00:54:11;46.67;;;25.83;;
66886;SDS011;53798;51.680;5.976;2022-12-05T00:56:41;48.35;;;26.17;;
66886;SDS011;53798;51.680;5.976;2022-12-05T00:59:14;53.55;;;28.45;;
66886;SDS011;53798;51.680;5.976;2022-12-05T01:01:45;47.97;;;26.30;;
66886;SDS011;53798;51.680;5.976;2022-12-05T01:04:16;49.30;;;27.10;;
66886;SDS011;53798;51.680;5.976;2022-12-05T01:06:47;48.55;;;26.67;;
66886;SDS011;53798;51.680;5.976;2022-12-05T01:09:16;50.47;;;26.90;;
66886;SDS011;53798;51.680;5.976;2022-12-05T01:11:46;47.90;;;26.40;;
66886;SDS011;53798;51.680;5.976;2022-12-05T01:14:15;51.63;;;26.48;;
66886;SDS011;53798;51.680;5.976;2022-12-05T01:16:46;46.10;;;26.98;;
66886;SDS011;53798;51.680;5.976;2022-12-05T01:19:27;49.30;;;26.00;;
66886;SDS011;53798;51.680;5.976;2022-12-05T01:21:58;55.40;;;28.15;;
66886;SDS011;53798;51.680;5.976;2022-12-05T01:24:26;48.42;;;25.75;;
66886;SDS011;53798;51.680;5.976;2022-12-05T01:26:55;53.80;;;26.67;;
66886;SDS011;53798;51.680;5.976;2022-12-05T01:29:23;50.33;;;26.33;;
66886;SDS011;53798;51.680;5.976;2022-12-05T01:31:51;49.28;;;25.05;;
66886;SDS011;53798;51.680;5.976;2022-12-05T01:34:20;52.80;;;27.98;;
66886;SDS011;53798;51.680;5.976;2022-12-05T01:36:48;49.15;;;27.27;;
66886;SDS011;53798;51.680;5.976;2022-12-05T01:39:15;51.63;;;27.52;;
66886;SDS011;53798;51.680;5.976;2022-12-05T01:41:46;51.78;;;26.90;;
66886;SDS011;53798;51.680;5.976;2022-12-05T01:46:44;51.05;;;26.65;;
66886;SDS011;53798;51.680;5.976;2022-12-05T01:49:18;47.75;;;26.75;;
66886;SDS011;53798;51.680;5.976;2022-12-05T01:51:46;53.90;;;27.25;;
66886;SDS011;53798;51.680;5.976;2022-12-05T01:54:18;51.03;;;27.75;;
66886;SDS011;53798;51.680;5.976;2022-12-05T01:56:49;53.83;;;27.55;;
66886;SDS011;53798;51.680;5.976;2022-12-05T01:59:24;56.33;;;27.50;;
66886;SDS011;53798;51.680;5.976;2022-12-05T02:01:58;54.42;;;27.30;;
66886;SDS011;53798;51.680;5.976;2022-12-05T02:04:26;59.55;;;27.38;;
66886;SDS011;53798;51.680;5.976;2022-12-05T02:06:53;53.22;;;28.25;;
66886;SDS011;53798;51.680;5.976;2022-12-05T02:09:21;57.13;;;28.35;;
66886;SDS011;53798;51.680;5.976;2022-12-05T02:11:50;53.90;;;27.73;;
66886;SDS011;53798;51.680;5.976;2022-12-05T02:18:40;54.65;;;26.95;;
66886;SDS011;53798;51.680;5.976;2022-12-05T02:27:48;61.92;;;29.52;;
66886;SDS011;53798;51.680;5.976;2022-12-05T02:30:37;55.30;;;27.45;;
66886;SDS011;53798;51.680;5.976;2022-12-05T02:33:21;56.30;;;28.65;;
66886;SDS011;53798;51.680;5.976;2022-12-05T02:35:57;57.78;;;29.05;;
66886;SDS011;53798;51.680;5.976;2022-12-05T02:41:39;64.13;;;30.35;;
66886;SDS011;53798;51.680;5.976;2022-12-05T02:44:53;62.67;;;30.95;;
66886;SDS011;53798;51.680;5.976;2022-12-05T02:47:22;59.58;;;30.27;;
66886;SDS011;53798;51.680;5.976;2022-12-05T02:49:56;67.28;;;31.27;;
66886;SDS011;53798;51.680;5.976;2022-12-05T02:52:25;61.20;;;30.30;;
66886;SDS011;53798;51.680;5.976;2022-12-05T02:54:55;62.75;;;31.23;;
66886;SDS011;53798;51.680;5.976;2022-12-05T02:57:24;63.95;;;30.15;;
66886;SDS011;53798;51.680;5.976;2022-12-05T02:59:51;65.40;;;32.08;;
66886;SDS011;53798;51.680;5.976;2022-12-05T03:02:25;62.67;;;30.73;;
66886;SDS011;53798;51.680;5.976;2022-12-05T03:04:58;67.60;;;30.25;;
66886;SDS011;53798;51.680;5.976;2022-12-05T03:07:57;69.80;;;31.92;;
66886;SDS011;53798;51.680;5.976;2022-12-05T03:10:30;66.80;;;31.27;;
66886;SDS011;53798;51.680;5.976;2022-12-05T03:13:06;68.78;;;31.88;;
66886;SDS011;53798;51.680;5.976;2022-12-05T03:15:45;65.88;;;31.58;;
66886;SDS011;53798;51.680;5.976;2022-12-05T03:18:38;59.65;;;30.85;;
66886;SDS011;53798;51.680;5.976;2022-12-05T03:23:48;63.47;;;30.88;;
66886;SDS011;53798;51.680;5.976;2022-12-05T03:29:28;60.67;;;29.63;;
66886;SDS011;53798;51.680;5.976;2022-12-05T03:32:16;67.57;;;31.30;;
66886;SDS011;53798;51.680;5.976;2022-12-05T03:40:22;66.68;;;31.48;;
66886;SDS011;53798;51.680;5.976;2022-12-05T03:46:02;66.70;;;30.98;;
66886;SDS011;53798;51.680;5.976;2022-12-05T03:48:46;66.13;;;30.73;;
66886;SDS011;53798;51.680;5.976;2022-12-05T03:51:27;74.47;;;30.80;;
66886;SDS011;53798;51.680;5.976;2022-12-05T03:54:27;70.47;;;30.73;;
66886;SDS011;53798;51.680;5.976;2022-12-05T03:57:12;64.13;;;30.92;;
66886;SDS011;53798;51.680;5.976;2022-12-05T04:00:00;67.78;;;30.52;;
66886;SDS011;53798;51.680;5.976;2022-12-05T04:05:18;65.85;;;30.52;;
66886;SDS011;53798;51.680;5.976;2022-12-05T04:07:57;68.88;;;29.40;;
66886;SDS011;53798;51.680;5.976;2022-12-05T04:10:32;67.75;;;30.45;;
66886;SDS011;53798;51.680;5.976;2022-12-05T04:15:57;64.93;;;30.42;;
66886;SDS011;53798;51.680;5.976;2022-12-05T04:18:54;69.47;;;31.13;;
66886;SDS011;53798;51.680;5.976;2022-12-05T04:21:39;67.97;;;29.27;;
66886;SDS011;53798;51.680;5.976;2022-12-05T04:24:17;63.03;;;29.30;;
66886;SDS011;53798;51.680;5.976;2022-12-05T04:27:09;61.65;;;28.70;;
66886;SDS011;53798;51.680;5.976;2022-12-05T04:30:07;56.45;;;28.00;;
66886;SDS011;53798;51.680;5.976;2022-12-05T04:32:51;55.90;;;27.20;;
66886;SDS011;53798;51.680;5.976;2022-12-05T04:38:23;56.28;;;27.20;;
66886;SDS011;53798;51.680;5.976;2022-12-05T04:41:02;59.67;;;27.52;;
66886;SDS011;53798;51.680;5.976;2022-12-05T04:43:36;56.45;;;26.83;;
66886;SDS011;53798;51.680;5.976;2022-12-05T04:46:09;53.30;;;26.27;;
66886;SDS011;53798;51.680;5.976;2022-12-05T04:48:41;55.25;;;26.98;;
66886;SDS011;53798;51.680;5.976;2022-12-05T04:51:19;52.53;;;26.65;;
66886;SDS011;53798;51.680;5.976;2022-12-05T04:53:53;54.97;;;27.33;;
66886;SDS011;53798;51.680;5.976;2022-12-05T04:56:30;52.42;;;27.63;;
66886;SDS011;53798;51.680;5.976;2022-12-05T04:59:03;52.85;;;26.17;;
66886;SDS011;53798;51.680;5.976;2022-12-05T05:01:33;48.55;;;25.52;;
66886;SDS011;53798;51.680;5.976;2022-12-05T05:04:12;49.10;;;26.02;;
66886;SDS011;53798;51.680;5.976;2022-12-05T05:06:48;45.38;;;24.65;;
66886;SDS011;53798;51.680;5.976;2022-12-05T05:09:15;46.03;;;24.75;;
66886;SDS011;53798;51.680;5.976;2022-12-05T05:11:42;47.85;;;24.75;;
66886;SDS011;53798;51.680;5.976;2022-12-05T05:14:10;46.42;;;23.33;;
66886;SDS011;53798;51.680;5.976;2022-12-05T05:16:38;44.90;;;23.95;;
66886;SDS011;53798;51.680;5.976;2022-12-05T05:19:07;43.33;;;23.38;;
66886;SDS011;53798;51.680;5.976;2022-12-05T05:21:39;49.10;;;23.95;;
66886;SDS011;53798;51.680;5.976;2022-12-05T05:24:09;39.50;;;22.35;;
66886;SDS011;53798;51.680;5.976;2022-12-05T05:26:38;42.92;;;22.70;;
66886;SDS011;53798;51.680;5.976;2022-12-05T05:29:08;42.85;;;23.60;;
66886;SDS011;53798;51.680;5.976;2022-12-05T05:31:36;41.35;;;23.08;;
66886;SDS011;53798;51.680;5.976;2022-12-05T05:34:05;41.63;;;22.88;;
66886;SDS011;53798;51.680;5.976;2022-12-05T05:36:36;41.75;;;22.55;;
66886;SDS011;53798;51.680;5.976;2022-12-05T05:39:04;40.65;;;22.63;;
66886;SDS011;53798;51.680;5.976;2022-12-05T05:41:37;43.78;;;23.50;;
66886;SDS011;53798;51.680;5.976;2022-12-05T05:44:04;39.83;;;22.38;;
66886;SDS011;53798;51.680;5.976;2022-12-05T05:46:31;41.17;;;22.40;;
66886;SDS011;53798;51.680;5.976;2022-12-05T05:49:00;41.10;;;22.63;;
66886;SDS011;53798;51.680;5.976;2022-12-05T05:51:27;42.35;;;22.45;;
66886;SDS011;53798;51.680;5.976;2022-12-05T05:53:55;42.08;;;21.38;;
66886;SDS011;53798;51.680;5.976;2022-12-05T05:56:30;39.63;;;21.73;;
66886;SDS011;53798;51.680;5.976;2022-12-05T05:58:58;39.28;;;22.05;;
66886;SDS011;53798;51.680;5.976;2022-12-05T06:01:27;40.90;;;21.13;;
66886;SDS011;53798;51.680;5.976;2022-12-05T06:03:55;37.75;;;20.58;;
66886;SDS011;53798;51.680;5.976;2022-12-05T06:08:53;36.08;;;19.60;;
66886;SDS011;53798;51.680;5.976;2022-12-05T06:11:23;33.80;;;20.13;;
66886;SDS011;53798;51.680;5.976;2022-12-05T06:13:53;36.05;;;19.80;;
66886;SDS011;53798;51.680;5.976;2022-12-05T06:16:22;35.38;;;18.70;;
66886;SDS011;53798;51.680;5.976;2022-12-05T06:18:50;33.42;;;19.15;;
66886;SDS011;53798;51.680;5.976;2022-12-05T06:21:18;35.03;;;19.83;;
66886;SDS011;53798;51.680;5.976;2022-12-05T06:23:46;35.13;;;19.35;;
66886;SDS011;53798;51.680;5.976;2022-12-05T06:28:47;36.97;;;20.37;;
66886;SDS011;53798;51.680;5.976;2022-12-05T06:31:14;34.47;;;20.50;;
66886;SDS011;53798;51.680;5.976;2022-12-05T06:33:45;37.05;;;20.85;;
66886;SDS011;53798;51.680;5.976;2022-12-05T06:36:13;40.47;;;20.38;;
66886;SDS011;53798;51.680;5.976;2022-12-05T06:38:44;39.33;;;21.15;;
66886;SDS011;53798;51.680;5.976;2022-12-05T06:41:15;33.25;;;19.45;;
66886;SDS011;53798;51.680;5.976;2022-12-05T06:43:45;33.67;;;18.80;;
66886;SDS011;53798;51.680;5.976;2022-12-05T06:46:12;36.72;;;19.90;;
66886;SDS011;53798;51.680;5.976;2022-12-05T06:48:41;35.42;;;19.75;;
66886;SDS011;53798;51.680;5.976;2022-12-05T06:51:09;40.85;;;20.98;;
66886;SDS011;53798;51.680;5.976;2022-12-05T06:53:38;39.35;;;20.45;;
66886;SDS011;53798;51.680;5.976;2022-12-05T06:56:05;38.08;;;19.90;;
66886;SDS011;53798;51.680;5.976;2022-12-05T06:58:42;35.10;;;19.85;;
66886;SDS011;53798;51.680;5.976;2022-12-05T07:01:12;35.47;;;20.13;;
66886;SDS011;53798;51.680;5.976;2022-12-05T07:04:01;37.05;;;20.17;;
66886;SDS011;53798;51.680;5.976;2022-12-05T07:06:28;38.40;;;19.77;;
66886;SDS011;53798;51.680;5.976;2022-12-05T07:08:55;39.22;;;20.77;;
66886;SDS011;53798;51.680;5.976;2022-12-05T07:11:22;38.53;;;20.60;;
66886;SDS011;53798;51.680;5.976;2022-12-05T07:13:48;36.22;;;20.00;;
66886;SDS011;53798;51.680;5.976;2022-12-05T07:16:15;37.13;;;21.02;;
66886;SDS011;53798;51.680;5.976;2022-12-05T07:18:42;38.22;;;20.55;;
66886;SDS011;53798;51.680;5.976;2022-12-05T07:21:10;37.15;;;19.55;;
66886;SDS011;53798;51.680;5.976;2022-12-05T07:23:41;37.40;;;19.80;;
66886;SDS011;53798;51.680;5.976;2022-12-05T07:26:12;37.65;;;20.35;;
66886;SDS011;53798;51.680;5.976;2022-12-05T07:28:46;36.47;;;19.45;;
66886;SDS011;53798;51.680;5.976;2022-12-05T07:31:15;36.40;;;18.60;;
66886;SDS011;53798;51.680;5.976;2022-12-05T07:33:48;34.08;;;19.42;;
66886;SDS011;53798;51.680;5.976;2022-12-05T07:36:17;33.80;;;19.92;;
66886;SDS011;53798;51.680;5.976;2022-12-05T07:38:48;35.05;;;19.88;;
66886;SDS011;53798;51.680;5.976;2022-12-05T07:41:23;33.10;;;19.40;;
66886;SDS011;53798;51.680;5.976;2022-12-05T07:43:57;32.95;;;19.30;;
66886;SDS011;53798;51.680;5.976;2022-12-05T07:46:25;35.65;;;19.40;;
66886;SDS011;53798;51.680;5.976;2022-12-05T07:48:54;33.75;;;18.98;;
66886;SDS011;53798;51.680;5.976;2022-12-05T07:51:21;30.63;;;18.33;;
66886;SDS011;53798;51.680;5.976;2022-12-05T07:53:49;30.90;;;18.60;;
66886;SDS011;53798;51.680;5.976;2022-12-05T07:56:16;31.83;;;18.38;;
66886;SDS011;53798;51.680;5.976;2022-12-05T07:58:44;31.73;;;18.75;;
66886;SDS011;53798;51.680;5.976;2022-12-05T08:01:14;34.95;;;19.17;;
66886;SDS011;53798;51.680;5.976;2022-12-05T08:03:43;35.22;;;19.17;;
66886;SDS011;53798;51.680;5.976;2022-12-05T08:06:12;30.98;;;17.58;;
66886;SDS011;53798;51.680;5.976;2022-12-05T08:08:43;33.13;;;18.83;;
66886;SDS011;53798;51.680;5.976;2022-12-05T08:11:11;35.08;;;19.10;;
66886;SDS011;53798;51.680;5.976;2022-12-05T08:13:41;33.10;;;18.60;;
66886;SDS011;53798;51.680;5.976;2022-12-05T08:16:09;31.77;;;18.63;;
66886;SDS011;53798;51.680;5.976;2022-12-05T08:18:40;34.25;;;18.55;;
66886;SDS011;53798;51.680;5.976;2022-12-05T08:21:09;31.92;;;19.45;;
66886;SDS011;53798;51.680;5.976;2022-12-05T08:23:40;31.15;;;18.73;;
66886;SDS011;53798;51.680;5.976;2022-12-05T08:26:09;29.38;;;18.30;;
66886;SDS011;53798;51.680;5.976;2022-12-05T08:28:51;33.78;;;18.77;;
66886;SDS011;53798;51.680;5.976;2022-12-05T08:31:25;31.45;;;18.20;;
66886;SDS011;53798;51.680;5.976;2022-12-05T08:33:55;32.58;;;18.63;;
66886;SDS011;53798;51.680;5.976;2022-12-05T08:36:25;32.85;;;18.55;;
66886;SDS011;53798;51.680;5.976;2022-12-05T08:38:57;30.67;;;17.92;;
66886;SDS011;53798;51.680;5.976;2022-12-05T08:41:27;32.33;;;17.50;;
66886;SDS011;53798;51.680;5.976;2022-12-05T08:43:56;25.95;;;15.68;;
66886;SDS011;53798;51.680;5.976;2022-12-05T08:46:30;25.20;;;14.70;;
66886;SDS011;53798;51.680;5.976;2022-12-05T08:48:59;27.35;;;15.60;;
66886;SDS011;53798;51.680;5.976;2022-12-05T08:51:26;23.98;;;14.52;;
66886;SDS011;53798;51.680;5.976;2022-12-05T08:53:52;23.05;;;14.10;;
66886;SDS011;53798;51.680;5.976;2022-12-05T08:56:21;22.95;;;13.93;;
66886;SDS011;53798;51.680;5.976;2022-12-05T08:58:53;20.98;;;14.48;;
66886;SDS011;53798;51.680;5.976;2022-12-05T09:01:28;23.92;;;13.88;;
66886;SDS011;53798;51.680;5.976;2022-12-05T09:03:58;23.40;;;14.68;;
66886;SDS011;53798;51.680;5.976;2022-12-05T09:06:26;22.13;;;14.15;;
66886;SDS011;53798;51.680;5.976;2022-12-05T09:08:59;25.08;;;14.50;;
66886;SDS011;53798;51.680;5.976;2022-12-05T09:11:31;24.75;;;13.93;;
66886;SDS011;53798;51.680;5.976;2022-12-05T09:14:04;20.75;;;13.40;;
66886;SDS011;53798;51.680;5.976;2022-12-05T09:16:31;20.27;;;13.05;;
66886;SDS011;53798;51.680;5.976;2022-12-05T09:19:05;20.17;;;12.65;;
66886;SDS011;53798;51.680;5.976;2022-12-05T09:21:43;18.95;;;12.13;;
66886;SDS011;53798;51.680;5.976;2022-12-05T09:24:11;20.13;;;12.93;;
66886;SDS011;53798;51.680;5.976;2022-12-05T09:26:40;18.98;;;12.00;;
66886;SDS011;53798;51.680;5.976;2022-12-05T09:29:09;20.50;;;12.85;;
66886;SDS011;53798;51.680;5.976;2022-12-05T09:31:43;21.48;;;12.65;;
66886;SDS011;53798;51.680;5.976;2022-12-05T09:34:12;19.35;;;12.60;;
66886;SDS011;53798;51.680;5.976;2022-12-05T09:36:40;19.35;;;12.45;;
66886;SDS011;53798;51.680;5.976;2022-12-05T09:39:08;20.17;;;12.68;;
66886;SDS011;53798;51.680;5.976;2022-12-05T09:49:56;30.63;;;21.33;;
66886;SDS011;53798;51.680;5.976;2022-12-05T09:52:37;25.52;;;17.38;;
66886;SDS011;53798;51.680;5.976;2022-12-05T09:55:19;23.98;;;14.23;;
66886;SDS011;53798;51.680;5.976;2022-12-05T09:57:56;21.17;;;14.02;;
66886;SDS011;53798;51.680;5.976;2022-12-05T10:00:28;20.60;;;13.90;;
66886;SDS011;53798;51.680;5.976;2022-12-05T10:03:07;33.05;;;22.52;;
66886;SDS011;53798;51.680;5.976;2022-12-05T10:13:04;72.85;;;50.70;;
66886;SDS011;53798;51.680;5.976;2022-12-05T10:15:52;69.72;;;44.80;;
66886;SDS011;53798;51.680;5.976;2022-12-05T10:21:17;31.20;;;21.60;;
66886;SDS011;53798;51.680;5.976;2022-12-05T10:23:57;42.22;;;24.42;;
66886;SDS011;53798;51.680;5.976;2022-12-05T10:26:39;27.92;;;19.52;;
66886;SDS011;53798;51.680;5.976;2022-12-05T10:31:53;61.55;;;41.40;;
66886;SDS011;53798;51.680;5.976;2022-12-05T10:34:46;33.63;;;23.17;;
66886;SDS011;53798;51.680;5.976;2022-12-05T10:37:19;27.13;;;18.83;;
66886;SDS011;53798;51.680;5.976;2022-12-05T10:39:49;44.78;;;33.30;;
66886;SDS011;53798;51.680;5.976;2022-12-05T10:45:03;24.92;;;18.40;;
66886;SDS011;53798;51.680;5.976;2022-12-05T10:47:38;20.10;;;15.15;;
66886;SDS011;53798;51.680;5.976;2022-12-05T10:50:07;17.90;;;13.50;;
66886;SDS011;53798;51.680;5.976;2022-12-05T10:52:58;19.65;;;12.77;;
66886;SDS011;53798;51.680;5.976;2022-12-05T10:55:50;21.00;;;13.32;;
66886;SDS011;53798;51.680;5.976;2022-12-05T10:58:36;18.58;;;12.93;;
66886;SDS011;53798;51.680;5.976;2022-12-05T11:01:07;22.65;;;12.70;;
66886;SDS011;53798;51.680;5.976;2022-12-05T11:03:40;59.33;;;34.20;;
66886;SDS011;53798;51.680;5.976;2022-12-05T11:06:25;28.65;;;15.15;;
66886;SDS011;53798;51.680;5.976;2022-12-05T11:08:58;16.45;;;12.35;;
66886;SDS011;53798;51.680;5.976;2022-12-05T11:14:55;24.45;;;16.55;;
66886;SDS011;53798;51.680;5.976;2022-12-05T11:17:31;20.58;;;13.32;;
66886;SDS011;53798;51.680;5.976;2022-12-05T11:22:50;13.05;;;9.88;;
66886;SDS011;53798;51.680;5.976;2022-12-05T11:27:49;13.27;;;10.23;;
66886;SDS011;53798;51.680;5.976;2022-12-05T11:30:17;15.60;;;10.93;;
66886;SDS011;53798;51.680;5.976;2022-12-05T11:32:51;16.27;;;11.82;;
66886;SDS011;53798;51.680;5.976;2022-12-05T11:35:46;17.73;;;13.40;;
66886;SDS011;53798;51.680;5.976;2022-12-05T11:38:18;19.83;;;12.98;;
66886;SDS011;53798;51.680;5.976;2022-12-05T11:41:15;16.92;;;11.68;;
66886;SDS011;53798;51.680;5.976;2022-12-05T11:44:23;17.55;;;11.77;;
66886;SDS011;53798;51.680;5.976;2022-12-05T11:50:49;16.30;;;11.32;;
66886;SDS011;53798;51.680;5.976;2022-12-05T11:56:48;17.20;;;12.23;;
66886;SDS011;53798;51.680;5.976;2022-12-05T11:59:33;16.00;;;11.43;;
66886;SDS011;53798;51.680;5.976;2022-12-05T12:08:38;15.60;;;11.63;;
66886;SDS011;53798;51.680;5.976;2022-12-05T12:14:30;16.27;;;12.48;;
66886;SDS011;53798;51.680;5.976;2022-12-05T12:20:06;18.45;;;12.77;;
66886;SDS011;53798;51.680;5.976;2022-12-05T12:23:13;20.10;;;11.85;;
66886;SDS011;53798;51.680;5.976;2022-12-05T12:43:23;12.85;;;8.98;;
66886;SDS011;53798;51.680;5.976;2022-12-05T12:52:18;11.52;;;8.05;;
66886;SDS011;53798;51.680;5.976;2022-12-05T12:57:57;12.23;;;9.20;;
66886;SDS011;53798;51.680;5.976;2022-12-05T13:04:02;15.02;;;9.07;;
66886;SDS011;53798;51.680;5.976;2022-12-05T13:06:48;12.35;;;9.10;;
66886;SDS011;53798;51.680;5.976;2022-12-05T13:09:37;12.40;;;9.35;;
66886;SDS011;53798;51.680;5.976;2022-12-05T13:12:20;15.68;;;10.07;;
66886;SDS011;53798;51.680;5.976;2022-12-05T13:14:59;13.73;;;9.23;;
66886;SDS011;53798;51.680;5.976;2022-12-05T13:17:34;15.02;;;10.70;;
66886;SDS011;53798;51.680;5.976;2022-12-05T13:20:05;17.88;;;10.93;;
66886;SDS011;53798;51.680;5.976;2022-12-05T13:22:44;15.95;;;10.60;;
66886;SDS011;53798;51.680;5.976;2022-12-05T13:25:18;15.52;;;10.43;;
66886;SDS011;53798;51.680;5.976;2022-12-05T13:27:59;16.33;;;11.02;;
66886;SDS011;53798;51.680;5.976;2022-12-05T13:30:30;15.63;;;11.30;;
66886;SDS011;53798;51.680;5.976;2022-12-05T13:33:20;19.08;;;11.23;;
66886;SDS011;53798;51.680;5.976;2022-12-05T13:35:55;14.48;;;10.45;;
66886;SDS011;53798;51.680;5.976;2022-12-05T13:38:54;17.75;;;10.95;;
66886;SDS011;53798;51.680;5.976;2022-12-05T13:41:51;18.38;;;11.68;;
66886;SDS011;53798;51.680;5.976;2022-12-05T13:44:41;15.80;;;11.65;;
66886;SDS011;53798;51.680;5.976;2022-12-05T13:53:38;20.35;;;13.45;;
66886;SDS011;53798;51.680;5.976;2022-12-05T13:58:48;20.70;;;13.52;;
66886;SDS011;53798;51.680;5.976;2022-12-05T14:04:00;21.33;;;14.52;;
66886;SDS011;53798;51.680;5.976;2022-12-05T14:23:12;18.63;;;12.93;;
66886;SDS011;53798;51.680;5.976;2022-12-05T14:34:30;23.85;;;16.42;;
66886;SDS011;53798;51.680;5.976;2022-12-05T14:37:03;19.98;;;13.52;;
66886;SDS011;53798;51.680;5.976;2022-12-05T14:39:56;18.38;;;13.20;;
66886;SDS011;53798;51.680;5.976;2022-12-05T14:42:43;22.98;;;13.93;;
66886;SDS011;53798;51.680;5.976;2022-12-05T14:48:05;19.48;;;13.23;;
66886;SDS011;53798;51.680;5.976;2022-12-05T14:50:55;20.23;;;13.43;;
66886;SDS011;53798;51.680;5.976;2022-12-05T14:53:39;19.20;;;12.90;;
66886;SDS011;53798;51.680;5.976;2022-12-05T14:56:13;18.65;;;12.73;;
66886;SDS011;53798;51.680;5.976;2022-12-05T15:09:38;23.15;;;16.33;;
66886;SDS011;53798;51.680;5.976;2022-12-05T15:21:01;20.90;;;14.23;;
66886;SDS011;53798;51.680;5.976;2022-12-05T15:23:37;21.30;;;14.48;;
66886;SDS011;53798;51.680;5.976;2022-12-05T15:31:59;18.88;;;12.60;;
66886;SDS011;53798;51.680;5.976;2022-12-05T15:40:44;20.30;;;12.98;;
66886;SDS011;53798;51.680;5.976;2022-12-05T15:46:18;19.70;;;12.85;;
66886;SDS011;53798;51.680;5.976;2022-12-05T15:48:50;18.83;;;12.73;;
66886;SDS011;53798;51.680;5.976;2022-12-05T15:51:42;18.42;;;12.93;;
66886;SDS011;53798;51.680;5.976;2022-12-05T15:54:13;20.27;;;13.57;;
66886;SDS011;53798;51.680;5.976;2022-12-05T15:56:57;20.00;;;13.00;;
66886;SDS011;53798;51.680;5.976;2022-12-05T15:59:55;21.52;;;13.63;;
66886;SDS011;53798;51.680;5.976;2022-12-05T16:07:59;25.08;;;14.43;;
66886;SDS011;53798;51.680;5.976;2022-12-05T16:10:29;20.92;;;13.90;;
66886;SDS011;53798;51.680;5.976;2022-12-05T16:13:01;21.08;;;14.30;;
66886;SDS011;53798;51.680;5.976;2022-12-05T16:15:32;20.55;;;13.63;;
66886;SDS011;53798;51.680;5.976;2022-12-05T16:18:02;22.17;;;14.63;;
66886;SDS011;53798;51.680;5.976;2022-12-05T16:20:35;21.17;;;14.35;;
66886;SDS011;53798;51.680;5.976;2022-12-05T16:23:04;20.60;;;14.60;;
66886;SDS011;53798;51.680;5.976;2022-12-05T16:25:50;21.27;;;14.25;;
66886;SDS011;53798;51.680;5.976;2022-12-05T16:28:18;21.65;;;14.70;;
66886;SDS011;53798;51.680;5.976;2022-12-05T16:30:57;21.40;;;13.73;;
66886;SDS011;53798;51.680;5.976;2022-12-05T16:33:29;23.55;;;15.45;;
66886;SDS011;53798;51.680;5.976;2022-12-05T16:36:07;25.33;;;15.70;;
66886;SDS011;53798;51.680;5.976;2022-12-05T16:38:37;24.65;;;15.32;;
66886;SDS011;53798;51.680;5.976;2022-12-05T16:41:06;26.50;;;16.50;;
66886;SDS011;53798;51.680;5.976;2022-12-05T16:48:44;27.10;;;18.85;;
66886;SDS011;53798;51.680;5.976;2022-12-05T16:51:40;24.00;;;17.27;;
66886;SDS011;53798;51.680;5.976;2022-12-05T16:54:11;27.85;;;15.35;;
66886;SDS011;53798;51.680;5.976;2022-12-05T16:56:38;21.15;;;14.25;;
66886;SDS011;53798;51.680;5.976;2022-12-05T16:59:06;20.60;;;14.68;;
66886;SDS011;53798;51.680;5.976;2022-12-05T17:01:52;21.90;;;14.68;;
66886;SDS011;53798;51.680;5.976;2022-12-05T17:04:19;21.45;;;14.73;;
66886;SDS011;53798;51.680;5.976;2022-12-05T17:06:46;23.98;;;15.52;;
66886;SDS011;53798;51.680;5.976;2022-12-05T17:09:14;22.05;;;15.27;;
66886;SDS011;53798;51.680;5.976;2022-12-05T17:11:41;20.23;;;14.23;;
66886;SDS011;53798;51.680;5.976;2022-12-05T17:14:16;23.65;;;14.90;;
66886;SDS011;53798;51.680;5.976;2022-12-05T17:16:45;32.17;;;19.80;;
66886;SDS011;53798;51.680;5.976;2022-12-05T17:19:12;21.70;;;13.80;;
66886;SDS011;53798;51.680;5.976;2022-12-05T17:21:46;22.83;;;14.85;;
66886;SDS011;53798;51.680;5.976;2022-12-05T17:24:15;21.60;;;14.93;;
66886;SDS011;53798;51.680;5.976;2022-12-05T17:26:44;23.08;;;14.57;;
66886;SDS011;53798;51.680;5.976;2022-12-05T17:29:13;20.35;;;14.10;;
66886;SDS011;53798;51.680;5.976;2022-12-05T17:31:40;25.60;;;15.73;;
66886;SDS011;53798;51.680;5.976;2022-12-05T17:34:09;28.65;;;18.83;;
66886;SDS011;53798;51.680;5.976;2022-12-05T17:36:44;23.58;;;16.45;;
66886;SDS011;53798;51.680;5.976;2022-12-05T17:39:11;27.42;;;18.33;;
66886;SDS011;53798;51.680;5.976;2022-12-05T17:41:38;33.00;;;20.92;;
66886;SDS011;53798;51.680;5.976;2022-12-05T17:44:06;28.75;;;18.88;;
66886;SDS011;53798;51.680;5.976;2022-12-05T17:46:33;35.90;;;20.55;;
66886;SDS011;53798;51.680;5.976;2022-12-05T17:49:01;33.45;;;20.42;;
66886;SDS011;53798;51.680;5.976;2022-12-05T17:51:28;27.55;;;17.17;;
66886;SDS011;53798;51.680;5.976;2022-12-05T17:53:59;26.40;;;16.25;;
66886;SDS011;53798;51.680;5.976;2022-12-05T17:56:26;20.63;;;13.77;;
66886;SDS011;53798;51.680;5.976;2022-12-05T17:58:53;51.90;;;36.92;;
66886;SDS011;53798;51.680;5.976;2022-12-05T18:01:20;41.40;;;25.48;;
66886;SDS011;53798;51.680;5.976;2022-12-05T18:03:48;33.88;;;23.00;;
66886;SDS011;53798;51.680;5.976;2022-12-05T18:06:15;26.70;;;16.77;;
66886;SDS011;53798;51.680;5.976;2022-12-05T18:08:43;25.58;;;15.77;;
66886;SDS011;53798;51.680;5.976;2022-12-05T18:11:12;26.85;;;17.10;;
66886;SDS011;53798;51.680;5.976;2022-12-05T18:13:40;25.23;;;17.52;;
66886;SDS011;53798;51.680;5.976;2022-12-05T18:16:08;25.70;;;15.48;;
66886;SDS011;53798;51.680;5.976;2022-12-05T18:18:36;21.20;;;13.80;;
66886;SDS011;53798;51.680;5.976;2022-12-05T18:21:07;21.15;;;13.60;;
66886;SDS011;53798;51.680;5.976;2022-12-05T18:23:37;22.48;;;14.00;;
66886;SDS011;53798;51.680;5.976;2022-12-05T18:26:07;19.75;;;13.52;;
66886;SDS011;53798;51.680;5.976;2022-12-05T18:28:36;23.75;;;14.23;;
66886;SDS011;53798;51.680;5.976;2022-12-05T18:31:06;21.98;;;14.02;;
66886;SDS011;53798;51.680;5.976;2022-12-05T18:33:37;25.10;;;14.15;;